Los Chavez, New Mexico
Current Conditions -  °F | °C
As of 3:55 PM on Monday 24 Nov 2014 (Local Time) from KE80 Reporting Station
Scattered Clouds Scattered Clouds  
Wind Chill: 35°   Ceiling: Unl
Heat Index: 44°   Visibility: 10mi
Dew Point:   Wind: 24mph
Humidity: 19%   Direction: 330°NNW
Pressure: 30.14"   Gusts: 32mph
Location:  34.5756°N, 106.588°W
Report Text: KE80 242255Z AUTO 33021G28KT 10SM SCT085 SCT100 07/M16 A3014 RMK AO2 T00661157
Loading
Personal Weather Stations






























Interactive Weather Map New forecast layout! Learn more

10-Day Weather Forecast

Advertisements
Track Severe Weather on mobile